createdAt,value
2022-12-12T00:00:27.427Z,-0.17
2022-12-12T00:02:53.923Z,-0.20
2022-12-12T00:05:20.467Z,-0.24
2022-12-12T00:07:46.887Z,-0.27
2022-12-12T00:10:13.369Z,-0.25
2022-12-12T00:12:39.843Z,-0.25
2022-12-12T00:15:06.870Z,-0.27
2022-12-12T00:17:33.316Z,-0.29
2022-12-12T00:19:59.837Z,-0.34
2022-12-12T00:22:26.265Z,-0.32
2022-12-12T00:24:52.703Z,-0.32
2022-12-12T00:27:19.136Z,-0.28
2022-12-12T00:29:45.560Z,-0.30
2022-12-12T00:32:11.962Z,-0.30
2022-12-12T00:34:38.367Z,-0.30
2022-12-12T00:37:04.769Z,-0.32
2022-12-12T00:39:31.199Z,-0.39
2022-12-12T00:41:57.617Z,-0.36
2022-12-12T00:44:24.072Z,-0.38
2022-12-12T00:46:50.516Z,-0.38
2022-12-12T00:49:17.022Z,-0.39
2022-12-12T00:51:43.813Z,-0.35
2022-12-12T00:54:11.267Z,-0.41
2022-12-12T00:56:38.989Z,-0.39
2022-12-12T00:59:05.868Z,-0.36
2022-12-12T01:01:33.944Z,-0.33
2022-12-12T01:04:01.111Z,-0.30
2022-12-12T01:06:28.147Z,-0.30
2022-12-12T01:08:54.894Z,-0.32
2022-12-12T01:11:22.671Z,-0.28
2022-12-12T01:13:51.915Z,-0.30
2022-12-12T01:16:18.374Z,-0.31
2022-12-12T01:18:45.090Z,-0.28
2022-12-12T01:21:14.463Z,-0.28
2022-12-12T01:23:41.484Z,-0.27
2022-12-12T01:26:12.000Z,-0.32
2022-12-12T01:28:38.779Z,-0.34
2022-12-12T01:31:05.738Z,-0.35
2022-12-12T01:33:32.279Z,-0.37
2022-12-12T01:35:59.085Z,-0.36
2022-12-12T01:38:25.766Z,-0.40
2022-12-12T01:40:53.049Z,-0.34
2022-12-12T01:43:20.645Z,-0.34
2022-12-12T01:46:02.629Z,-0.32
2022-12-12T01:48:34.832Z,-0.32
2022-12-12T01:51:04.744Z,-0.28
2022-12-12T01:53:31.808Z,-0.32
2022-12-12T01:55:58.997Z,-0.32
2022-12-12T01:58:25.939Z,-0.35
2022-12-12T02:00:52.442Z,-0.33
2022-12-12T02:03:18.951Z,-0.30
2022-12-12T02:05:49.306Z,-0.30
2022-12-12T02:08:16.328Z,-0.32
2022-12-12T02:10:44.499Z,-0.28
2022-12-12T02:13:14.289Z,-0.24
2022-12-12T02:16:05.170Z,-0.27
2022-12-12T02:18:34.581Z,-0.22
2022-12-12T02:21:26.078Z,-0.25
2022-12-12T02:24:06.747Z,-0.25
2022-12-12T02:26:55.645Z,-0.22
2022-12-12T02:29:43.528Z,-0.19
2022-12-12T02:32:12.812Z,-0.19
2022-12-12T02:35:04.788Z,-0.17
2022-12-12T02:37:41.724Z,-0.21
2022-12-12T02:40:26.917Z,-0.22
2022-12-12T02:43:31.015Z,-0.27
2022-12-12T02:46:05.549Z,-0.24
2022-12-12T02:48:43.064Z,-0.24
2022-12-12T02:51:11.281Z,-0.21
2022-12-12T02:53:37.718Z,-0.22
2022-12-12T02:56:42.764Z,-0.19
2022-12-12T02:59:10.875Z,-0.24
2022-12-12T03:01:55.224Z,-0.26
2022-12-12T03:04:48.433Z,-0.25
2022-12-12T03:07:40.652Z,-0.26
2022-12-12T03:10:13.776Z,-0.27
2022-12-12T03:12:48.950Z,-0.30
2022-12-12T03:15:25.147Z,-0.27
2022-12-12T03:18:00.257Z,-0.25
2022-12-12T03:20:29.724Z,-0.31
2022-12-12T03:23:03.220Z,-0.32
2022-12-12T03:25:51.461Z,-0.25
2022-12-12T03:28:20.436Z,-0.22
2022-12-12T03:30:48.722Z,-0.21
2022-12-12T03:33:37.025Z,-0.19
2022-12-12T03:36:10.378Z,-0.23
2022-12-12T03:38:41.648Z,-0.20
2022-12-12T03:41:14.554Z,-0.18
2022-12-12T03:43:47.613Z,-0.19
2022-12-12T03:46:18.379Z,-0.23
2022-12-12T03:48:58.693Z,-0.21
2022-12-12T03:51:30.724Z,-0.27
2022-12-12T03:54:12.252Z,-0.24
2022-12-12T03:56:49.614Z,-0.28
2022-12-12T03:59:36.281Z,-0.24
2022-12-12T04:02:04.640Z,-0.25
2022-12-12T04:05:00.443Z,-0.18
2022-12-12T04:07:37.668Z,-0.16
2022-12-12T04:10:23.672Z,-0.15
2022-12-12T04:13:10.243Z,-0.17
2022-12-12T04:15:48.725Z,-0.18
2022-12-12T04:18:33.886Z,-0.16
2022-12-12T04:21:37.750Z,-0.18
2022-12-12T04:24:23.096Z,-0.18
2022-12-12T04:26:54.998Z,-0.20
2022-12-12T04:29:21.327Z,-0.21
2022-12-12T04:31:53.693Z,-0.20
2022-12-12T04:34:26.513Z,-0.17
2022-12-12T04:36:53.345Z,-0.12
2022-12-12T04:39:20.604Z,-0.10
2022-12-12T04:41:48.777Z,-0.13
2022-12-12T04:44:16.375Z,-0.10
2022-12-12T04:46:42.956Z,-0.12
2022-12-12T04:49:14.771Z,-0.22
2022-12-12T04:51:44.586Z,-0.17
2022-12-12T04:54:15.964Z,-0.14
2022-12-12T04:56:45.177Z,-0.21
2022-12-12T04:59:11.677Z,-0.21
2022-12-12T05:01:58.279Z,-0.21
2022-12-12T05:04:38.194Z,-0.21
2022-12-12T05:07:11.059Z,-0.22
2022-12-12T05:09:37.553Z,-0.18
2022-12-12T05:12:04.214Z,-0.23
2022-12-12T05:14:31.517Z,-0.22
2022-12-12T05:17:07.963Z,-0.19
2022-12-12T05:19:34.392Z,-0.20
2022-12-12T05:22:00.819Z,-0.21
2022-12-12T05:24:31.112Z,-0.24
2022-12-12T05:26:58.897Z,-0.31
2022-12-12T05:29:25.325Z,-0.26
2022-12-12T05:31:51.884Z,-0.25
2022-12-12T05:34:18.418Z,-0.26
2022-12-12T05:36:44.898Z,-0.29
2022-12-12T05:39:11.354Z,-0.34
2022-12-12T05:41:37.755Z,-0.40
2022-12-12T05:44:04.161Z,-0.39
2022-12-12T05:46:30.645Z,-0.42
2022-12-12T05:48:57.122Z,-0.42
2022-12-12T05:51:23.559Z,-0.44
2022-12-12T05:53:49.961Z,-0.47
2022-12-12T05:56:16.396Z,-0.48
2022-12-12T05:58:43.152Z,-0.48
2022-12-12T06:01:10.082Z,-0.47
2022-12-12T06:03:36.644Z,-0.47
2022-12-12T06:06:03.153Z,-0.49
2022-12-12T06:08:29.779Z,-0.55
2022-12-12T06:10:57.218Z,-0.57
2022-12-12T06:13:23.677Z,-0.60
2022-12-12T06:15:50.153Z,-0.60
2022-12-12T06:18:16.559Z,-0.58
2022-12-12T06:20:43.222Z,-0.70
2022-12-12T06:23:09.604Z,-0.66
2022-12-12T06:25:36.246Z,-0.66
2022-12-12T06:28:02.720Z,-0.68
2022-12-12T06:30:29.136Z,-0.67
2022-12-12T06:32:56.180Z,-0.66
2022-12-12T06:35:22.692Z,-0.69
2022-12-12T06:37:49.140Z,-0.67
2022-12-12T06:40:15.631Z,-0.65
2022-12-12T06:42:46.395Z,-0.65
2022-12-12T06:45:15.252Z,-0.63
2022-12-12T06:47:42.039Z,-0.61
2022-12-12T06:50:08.907Z,-0.58
2022-12-12T06:52:35.318Z,-0.58
2022-12-12T06:55:01.809Z,-0.60
2022-12-12T06:57:29.050Z,-0.59
2022-12-12T06:59:55.535Z,-0.62
2022-12-12T07:02:27.757Z,-0.58
2022-12-12T07:04:56.477Z,-0.57
2022-12-12T07:07:22.909Z,-0.56
2022-12-12T07:09:49.428Z,-0.56
2022-12-12T07:12:15.878Z,-0.55
2022-12-12T07:14:42.338Z,-0.54
2022-12-12T07:17:08.830Z,-0.56
2022-12-12T07:19:35.548Z,-0.52
2022-12-12T07:22:09.022Z,-0.49
2022-12-12T07:24:36.465Z,-0.49
2022-12-12T07:27:03.263Z,-0.62
2022-12-12T07:29:29.679Z,-0.51
2022-12-12T07:31:56.177Z,-0.54
2022-12-12T07:34:22.626Z,-0.52
2022-12-12T07:36:49.247Z,-0.52
2022-12-12T07:39:20.779Z,-0.47
2022-12-12T07:41:47.685Z,-0.43
2022-12-12T07:44:15.879Z,-0.49
2022-12-12T07:46:42.476Z,-0.43
2022-12-12T07:49:08.964Z,-0.43
2022-12-12T07:51:35.462Z,-0.44
2022-12-12T07:54:01.903Z,-0.42
2022-12-12T07:56:28.590Z,-0.46
2022-12-12T07:58:55.452Z,-0.43
2022-12-12T08:01:24.540Z,-0.42
2022-12-12T08:03:51.925Z,-0.40
2022-12-12T08:06:19.146Z,-0.42
2022-12-12T08:08:46.577Z,-0.42
2022-12-12T08:11:15.041Z,-0.39
2022-12-12T08:13:42.133Z,-0.37
2022-12-12T08:16:13.895Z,-0.34
2022-12-12T08:18:40.446Z,-0.39
2022-12-12T08:21:08.683Z,-0.36
2022-12-12T08:23:35.087Z,-0.31
2022-12-12T08:26:13.881Z,-0.26
2022-12-12T08:28:41.501Z,-0.25
2022-12-12T08:31:08.826Z,-0.20
2022-12-12T08:33:35.375Z,-0.16
2022-12-12T08:36:22.422Z,-0.16
2022-12-12T08:38:49.425Z,-0.11
2022-12-12T08:41:16.299Z,-0.10
2022-12-12T08:43:43.691Z,-0.08
2022-12-12T08:46:17.902Z,-0.10
2022-12-12T08:48:45.178Z,-0.04
2022-12-12T08:51:11.658Z,-0.02
2022-12-12T08:53:38.177Z,0.01
2022-12-12T08:56:04.991Z,0.03
2022-12-12T08:58:31.481Z,0.02
2022-12-12T09:00:57.915Z,0.04
2022-12-12T09:03:29.259Z,0.03
2022-12-12T09:05:56.241Z,0.03
2022-12-12T09:08:22.727Z,0.05
2022-12-12T09:10:50.149Z,0.09
2022-12-12T09:13:16.793Z,0.06
2022-12-12T09:15:43.264Z,0.11
2022-12-12T09:18:09.676Z,0.11
2022-12-12T09:20:36.076Z,0.06
2022-12-12T09:23:02.470Z,0.09
2022-12-12T09:25:28.926Z,0.17
2022-12-12T09:27:55.316Z,0.14
2022-12-12T09:30:22.209Z,0.14
2022-12-12T09:32:48.671Z,0.16
2022-12-12T09:35:16.118Z,0.21
2022-12-12T09:37:42.685Z,0.22
2022-12-12T09:40:13.133Z,0.28
2022-12-12T09:42:40.096Z,0.35
2022-12-12T09:45:07.823Z,0.39
2022-12-12T09:47:39.037Z,0.41
2022-12-12T09:50:21.657Z,0.45
2022-12-12T09:52:48.371Z,0.47
2022-12-12T09:55:20.873Z,0.52
2022-12-12T09:57:55.414Z,0.52
2022-12-12T10:00:21.991Z,0.55
2022-12-12T10:03:01.325Z,0.58
2022-12-12T10:05:35.213Z,0.61
2022-12-12T10:08:10.819Z,0.62
2022-12-12T10:10:40.527Z,0.60
2022-12-12T10:13:14.937Z,0.65
2022-12-12T10:15:45.016Z,0.71
2022-12-12T10:18:41.970Z,0.75
2022-12-12T10:21:16.037Z,0.74
2022-12-12T10:23:46.410Z,0.72
2022-12-12T10:26:25.707Z,0.75
2022-12-12T10:29:13.777Z,0.78
2022-12-12T10:31:57.797Z,0.81
2022-12-12T10:34:34.354Z,0.82
2022-12-12T10:37:25.319Z,0.85
2022-12-12T10:40:12.994Z,0.87
2022-12-12T10:42:56.122Z,0.91
2022-12-12T10:45:45.830Z,0.91
2022-12-12T10:48:12.400Z,0.91
2022-12-12T10:50:43.159Z,0.87
2022-12-12T10:53:11.007Z,0.76
2022-12-12T10:55:53.573Z,0.80
2022-12-12T10:58:24.895Z,0.80
2022-12-12T11:00:52.335Z,0.81
2022-12-12T11:03:34.573Z,0.79
2022-12-12T11:06:05.891Z,0.83
2022-12-12T11:08:35.159Z,0.84
2022-12-12T11:11:19.651Z,0.82
2022-12-12T11:13:57.627Z,0.86
2022-12-12T11:16:26.244Z,0.84
2022-12-12T11:19:04.376Z,0.92
2022-12-12T11:21:36.007Z,0.85
2022-12-12T11:24:08.615Z,0.91
2022-12-12T11:26:42.636Z,0.81
2022-12-12T11:29:27.626Z,0.81
2022-12-12T11:31:55.118Z,0.82
2022-12-12T11:34:22.435Z,0.83
2022-12-12T11:36:49.019Z,0.80
2022-12-12T11:39:24.619Z,0.81
2022-12-12T11:42:21.635Z,0.79
2022-12-12T11:44:58.480Z,0.82
2022-12-12T11:47:27.578Z,0.82
2022-12-12T11:50:01.966Z,0.84
2022-12-12T11:52:32.127Z,0.94
2022-12-12T11:54:59.307Z,0.94
2022-12-12T11:57:46.426Z,0.94
2022-12-12T12:00:14.039Z,0.88
2022-12-12T12:02:55.693Z,0.83
2022-12-12T12:05:41.943Z,0.83
2022-12-12T12:09:03.862Z,0.80
2022-12-12T12:11:37.257Z,0.88
2022-12-12T12:14:21.970Z,0.88
2022-12-12T12:16:54.314Z,0.75
2022-12-12T12:19:28.853Z,0.80
2022-12-12T12:22:14.115Z,0.82
2022-12-12T12:24:46.572Z,0.74
2022-12-12T12:28:04.646Z,0.63
2022-12-12T12:30:52.349Z,0.68
2022-12-12T12:33:33.572Z,0.59
2022-12-12T12:36:09.960Z,0.62
2022-12-12T12:38:55.585Z,0.63
2022-12-12T12:41:27.170Z,0.57
2022-12-12T12:44:27.688Z,0.62
2022-12-12T12:47:16.869Z,0.63
2022-12-12T12:49:51.243Z,0.65
2022-12-12T12:52:36.785Z,0.54
2022-12-12T12:55:03.753Z,0.60
2022-12-12T12:57:34.211Z,0.62
2022-12-12T13:00:09.891Z,0.58
2022-12-12T13:03:11.779Z,0.60
2022-12-12T13:05:42.487Z,0.62
2022-12-12T13:08:16.120Z,0.58
2022-12-12T13:10:47.051Z,0.53
2022-12-12T13:13:26.813Z,0.54
2022-12-12T13:16:11.831Z,0.48
2022-12-12T13:18:47.569Z,0.49
2022-12-12T13:21:27.929Z,0.46
2022-12-12T13:24:20.627Z,0.47
2022-12-12T13:26:59.603Z,0.49
2022-12-12T13:29:34.707Z,0.51
2022-12-12T13:32:34.660Z,0.51
2022-12-12T13:35:06.653Z,0.47
2022-12-12T13:37:36.324Z,0.48
2022-12-12T13:40:06.311Z,0.48
2022-12-12T13:42:54.072Z,0.46
2022-12-12T13:45:35.232Z,0.47
2022-12-12T13:48:04.326Z,0.46
2022-12-12T13:50:31.004Z,0.45
2022-12-12T13:53:06.556Z,0.41
2022-12-12T13:55:34.152Z,0.41
2022-12-12T13:58:02.501Z,0.44
2022-12-12T14:00:30.988Z,0.42
2022-12-12T14:03:03.708Z,0.40
2022-12-12T14:05:34.697Z,0.39
2022-12-12T14:08:28.377Z,0.36
2022-12-12T14:10:57.281Z,0.34
2022-12-12T14:13:26.941Z,0.34
2022-12-12T14:16:06.040Z,0.33
2022-12-12T14:18:39.931Z,0.31
2022-12-12T14:21:14.218Z,0.33
2022-12-12T14:23:42.703Z,0.32
2022-12-12T14:26:32.561Z,0.30
2022-12-12T14:29:17.244Z,0.29
2022-12-12T14:32:07.935Z,0.29
2022-12-12T14:34:34.247Z,0.30
2022-12-12T14:37:06.753Z,0.32
2022-12-12T14:39:41.802Z,0.33
2022-12-12T14:42:18.282Z,0.33
2022-12-12T14:44:50.513Z,0.34
2022-12-12T14:47:17.818Z,0.35
2022-12-12T14:49:44.697Z,0.37
2022-12-12T14:52:21.793Z,0.39
2022-12-12T14:54:51.496Z,0.40
2022-12-12T14:57:21.735Z,0.43
2022-12-12T14:59:48.757Z,0.44
2022-12-12T15:02:32.490Z,0.43
2022-12-12T15:05:04.902Z,0.44
2022-12-12T15:07:34.575Z,0.46
2022-12-12T15:10:01.092Z,0.46
2022-12-12T15:12:33.761Z,0.47
2022-12-12T15:15:00.446Z,0.47
2022-12-12T15:17:32.334Z,0.48
2022-12-12T15:20:01.162Z,0.48
2022-12-12T15:22:30.349Z,0.48
2022-12-12T15:24:59.153Z,0.46
2022-12-12T15:27:37.438Z,0.47
2022-12-12T15:30:13.022Z,0.46
2022-12-12T15:32:39.806Z,0.48
2022-12-12T15:35:09.358Z,0.48
2022-12-12T15:37:36.817Z,0.48
2022-12-12T15:40:09.465Z,0.49
2022-12-12T15:42:40.266Z,0.46
2022-12-12T15:45:08.866Z,0.50
2022-12-12T15:47:35.321Z,0.49
2022-12-12T15:50:19.673Z,0.49
2022-12-12T15:52:48.221Z,0.49
2022-12-12T15:55:22.422Z,0.48
2022-12-12T15:57:51.463Z,0.46
2022-12-12T16:00:32.155Z,0.48
2022-12-12T16:03:09.121Z,0.45
2022-12-12T16:05:37.967Z,0.46
2022-12-12T16:08:31.769Z,0.41
2022-12-12T16:11:00.653Z,0.39
2022-12-12T16:13:41.233Z,0.37
2022-12-12T16:16:45.372Z,0.32
2022-12-12T16:19:27.886Z,0.27
2022-12-12T16:21:54.814Z,0.25
2022-12-12T16:24:24.773Z,0.21
2022-12-12T16:26:52.822Z,0.19
2022-12-12T16:29:19.216Z,0.15
2022-12-12T16:31:45.897Z,0.14
2022-12-12T16:34:12.309Z,0.11
2022-12-12T16:36:42.201Z,0.08
2022-12-12T16:39:10.639Z,0.07
2022-12-12T16:41:37.107Z,0.05
2022-12-12T16:44:03.612Z,0.03
2022-12-12T16:46:30.072Z,0.03
2022-12-12T16:49:03.315Z,0.03
2022-12-12T16:51:31.201Z,0.02
2022-12-12T16:53:57.774Z,0.01
2022-12-12T16:56:24.789Z,0.01
2022-12-12T16:58:53.252Z,-0.01
2022-12-12T17:01:20.467Z,-0.02
2022-12-12T17:03:46.982Z,-0.03
2022-12-12T17:06:13.538Z,-0.05
2022-12-12T17:08:40.048Z,-0.06
2022-12-12T17:11:10.109Z,-0.08
2022-12-12T17:13:38.263Z,-0.08
2022-12-12T17:16:04.917Z,-0.11
2022-12-12T17:18:31.422Z,-0.12
2022-12-12T17:20:57.947Z,-0.16
2022-12-12T17:23:30.516Z,-0.25
2022-12-12T17:26:03.510Z,-0.28
2022-12-12T17:28:32.222Z,-0.33
2022-12-12T17:30:58.791Z,-0.36
2022-12-12T17:33:25.582Z,-0.39
2022-12-12T17:35:59.757Z,-0.43
2022-12-12T17:38:26.228Z,-0.44
2022-12-12T17:40:53.938Z,-0.46
2022-12-12T17:43:21.541Z,-0.48
2022-12-12T17:46:00.036Z,-0.50
2022-12-12T17:48:32.137Z,-0.54
2022-12-12T17:51:04.748Z,-0.58
2022-12-12T17:53:36.491Z,-0.62
2022-12-12T17:56:11.844Z,-0.65
2022-12-12T17:58:40.754Z,-0.68
2022-12-12T18:01:16.427Z,-0.70
2022-12-12T18:03:43.503Z,-0.72
2022-12-12T18:06:10.708Z,-0.75
2022-12-12T18:08:37.659Z,-0.78
2022-12-12T18:11:12.241Z,-0.81
2022-12-12T18:13:39.971Z,-0.81
2022-12-12T18:16:08.209Z,-0.83
2022-12-12T18:18:35.423Z,-0.85
2022-12-12T18:21:07.084Z,-0.88
2022-12-12T18:23:34.027Z,-0.87
2022-12-12T18:26:05.484Z,-0.91
2022-12-12T18:28:32.140Z,-0.93
2022-12-12T18:30:58.669Z,-0.95
2022-12-12T18:33:25.110Z,-0.97
2022-12-12T18:35:51.796Z,-1.01
2022-12-12T18:38:19.286Z,-1.03
2022-12-12T18:40:45.726Z,-1.07
2022-12-12T18:43:12.133Z,-1.11
2022-12-12T18:45:38.627Z,-1.15
2022-12-12T18:48:05.314Z,-1.20
2022-12-12T18:50:32.864Z,-1.22
2022-12-12T18:52:59.284Z,-1.23
2022-12-12T18:55:29.854Z,-1.26
2022-12-12T18:57:57.346Z,-1.28
2022-12-12T19:00:24.655Z,-1.30
2022-12-12T19:02:51.064Z,-1.33
2022-12-12T19:05:17.607Z,-1.37
2022-12-12T19:07:44.256Z,-1.38
2022-12-12T19:10:10.775Z,-1.41
2022-12-12T19:12:37.181Z,-1.43
2022-12-12T19:15:20.194Z,-1.47
2022-12-12T19:17:46.746Z,-1.52
2022-12-12T19:20:13.473Z,-1.54
2022-12-12T19:22:45.609Z,-1.59
2022-12-12T19:25:18.029Z,-1.63
2022-12-12T19:27:44.946Z,-1.65
2022-12-12T19:30:13.033Z,-1.66
2022-12-12T19:32:39.907Z,-1.68
2022-12-12T19:35:07.312Z,-1.69
2022-12-12T19:37:35.692Z,-1.68
2022-12-12T19:40:02.155Z,-1.71
2022-12-12T19:42:28.570Z,-1.74
2022-12-12T19:44:54.978Z,-1.75
2022-12-12T19:47:21.407Z,-1.78
2022-12-12T19:49:49.236Z,-1.81
2022-12-12T19:52:15.654Z,-1.81
2022-12-12T19:54:42.115Z,-1.83
2022-12-12T19:57:08.530Z,-1.85
2022-12-12T19:59:34.953Z,-1.87
2022-12-12T20:02:01.445Z,-1.89
2022-12-12T20:04:30.015Z,-1.89
2022-12-12T20:06:56.603Z,-1.95
2022-12-12T20:09:26.202Z,-1.96
2022-12-12T20:11:53.274Z,-2.01
2022-12-12T20:14:24.180Z,-2.01
2022-12-12T20:16:51.406Z,-2.02
2022-12-12T20:19:18.200Z,-2.02
2022-12-12T20:22:03.352Z,-2.04
2022-12-12T20:24:31.224Z,-2.05
2022-12-12T20:26:59.277Z,-2.05
2022-12-12T20:29:25.762Z,-2.09
2022-12-12T20:31:52.236Z,-2.08
2022-12-12T20:34:21.655Z,-2.12
2022-12-12T20:36:48.114Z,-2.15
2022-12-12T20:39:16.827Z,-2.17
2022-12-12T20:41:43.713Z,-2.18
2022-12-12T20:44:12.028Z,-2.17
2022-12-12T20:46:41.063Z,-2.20
2022-12-12T20:49:09.490Z,-2.21
2022-12-12T20:54:24.429Z,-2.25
2022-12-12T20:56:51.604Z,-2.28
2022-12-12T20:59:18.085Z,-2.31
2022-12-12T21:01:44.659Z,-2.34
2022-12-12T21:04:11.128Z,-2.36
2022-12-12T21:06:40.264Z,-2.39
2022-12-12T21:09:09.552Z,-2.42
2022-12-12T21:11:36.737Z,-2.45
2022-12-12T21:14:03.521Z,-2.47
2022-12-12T21:16:32.842Z,-2.50
2022-12-12T21:19:02.840Z,-2.53
2022-12-12T21:21:29.878Z,-2.55
2022-12-12T21:23:56.645Z,-2.59
2022-12-12T21:26:28.897Z,-2.61
2022-12-12T21:28:56.646Z,-2.62
2022-12-12T21:31:25.534Z,-2.62
2022-12-12T21:33:52.089Z,-2.63
2022-12-12T21:36:20.833Z,-2.65
2022-12-12T21:38:48.166Z,-2.67
2022-12-12T21:41:17.761Z,-2.67
2022-12-12T21:43:45.178Z,-2.70
2022-12-12T21:46:20.601Z,-2.69
2022-12-12T21:49:07.675Z,-2.69
2022-12-12T21:51:34.623Z,-2.70
2022-12-12T21:54:01.049Z,-2.71
2022-12-12T21:56:27.489Z,-2.73
2022-12-12T21:58:53.905Z,-2.73
2022-12-12T22:01:21.104Z,-2.75
2022-12-12T22:03:49.004Z,-2.76
2022-12-12T22:06:23.904Z,-2.80
2022-12-12T22:08:51.271Z,-2.82
2022-12-12T22:11:34.349Z,-2.83
2022-12-12T22:14:05.832Z,-2.85
2022-12-12T22:16:33.590Z,-2.88
2022-12-12T22:19:06.720Z,-2.89
2022-12-12T22:21:34.043Z,-2.90
2022-12-12T22:24:00.683Z,-2.93
2022-12-12T22:26:31.666Z,-2.92
2022-12-12T22:29:00.193Z,-2.92
2022-12-12T22:31:28.614Z,-2.96
2022-12-12T22:33:59.066Z,-2.97
2022-12-12T22:36:30.145Z,-2.99
2022-12-12T22:38:57.153Z,-3.02
2022-12-12T22:41:24.473Z,-3.02
2022-12-12T22:43:54.935Z,-3.03
2022-12-12T22:46:21.871Z,-3.06
2022-12-12T22:48:48.503Z,-3.07
2022-12-12T22:51:17.535Z,-3.08
2022-12-12T22:53:44.689Z,-3.09
2022-12-12T22:56:11.560Z,-3.12
2022-12-12T22:58:38.075Z,-3.13
2022-12-12T23:01:08.422Z,-3.16
2022-12-12T23:03:34.841Z,-3.18
2022-12-12T23:06:09.882Z,-3.19
2022-12-12T23:08:36.399Z,-3.21
2022-12-12T23:11:11.586Z,-3.25
2022-12-12T23:13:39.185Z,-3.27
2022-12-12T23:16:08.059Z,-3.30
2022-12-12T23:18:36.359Z,-3.33
2022-12-12T23:21:03.481Z,-3.34
2022-12-12T23:23:31.518Z,-3.36
2022-12-12T23:26:05.734Z,-3.38
2022-12-12T23:28:32.197Z,-3.38
2022-12-12T23:30:58.617Z,-3.40
2022-12-12T23:33:25.401Z,-3.41
2022-12-12T23:35:52.623Z,-3.42
2022-12-12T23:38:19.476Z,-3.45
2022-12-12T23:40:46.117Z,-3.45
2022-12-12T23:43:12.524Z,-3.47
2022-12-12T23:45:39.116Z,-3.48
2022-12-12T23:48:06.010Z,-3.50
2022-12-12T23:50:33.008Z,-3.53
2022-12-12T23:52:59.589Z,-3.55
2022-12-12T23:55:26.037Z,-3.58
2022-12-12T23:57:52.459Z,-3.61
